Minersville, UT (84752)

10:17 AM MDT on October 24, 2014 (GMT -0600)
Milford Municipal | Change Station
CLOSE
Current Station
Airport
Location: Milford,
Elevation: 5039 ft
Nearby Weather Stations
Active Advisory: Special Statement

Elev 5039 ft 38.43 °N, 113.01 °W | Updated 25 minutes ago

Clear
Clear
54 °F
Feels Like 54 °F
N
12
Wind Variable Wind from South

Today
High -- | Low -- °F
--% Chance of Precip.
Yesterday
High -- | Low -- °F
Precip. -- in
7:49 AM 6:41 PM
New Moon, 1% visible
Pressure 30.14 in
Visibility 10.0 miles
Clouds Clear
Dew Point 32 °F
Humidity 43%
Rainfall 0.00 in
Snow Depth Not available.
UV 2 out of 12
Pollen 4.00 out of 12
Air Quality Not available.
Flu Activity Sporadic
METAR KMLF 241552Z AUTO 18010KT 10SM CLR 12/00 A3025 RMK AO2 SLP204 T01220000 TSNO

More Conditions Fewer Conditions

Pressure 30.14 in
Visibility 10.0 miles
Clouds Clear
Dew Point 32 °F
Humidity 43%
Rainfall 0.00 in
Snow Depth Not available.
UV 2 out of 12
Pollen 4.00 out of 12
Air Quality Not available.
Flu Activity Sporadic
METAR KMLF 241552Z AUTO 18010KT 10SM CLR 12/00 A3025 RMK AO2 SLP204 T01220000 TSNO

More Conditions Fewer Conditions

10-Day Weather Forecast

Almanac

Astronomy

Oct. 24, 2014 Rise Set
Actual Time 7:49 AM MDT 6:41 PM MDT
Civil Twilight 7:22 AM MDT 7:08 PM MDT
Nautical Twilight 6:51 AM MDT 7:39 PM MDT
Astronomical Twilight 6:21 AM MDT 8:10 PM MDT
Moon 8:31 AM MDT 7:25 PM MDT
Length of Visible Light 11h 46m
Length of Day
10h 52m
Tomorrow will be 2m 17s shorter.
New Moon, 1% of the Moon is Illuminated
Today
New Moon
Oct 30
First Quarter
Nov 6
Full
Nov 14
Last Quarter
Nov 22
New

Today's Extremes

State Highs State Lows

Community

WunderPhotos

Upload Photos

1,764,600 photos uploaded!

WunderBlogs® & News

By Dr. Jeff Masters
Director of Meteorology, Weather Underground
By Kari Strenfel
Meteorologist, Weather Underground
By Christopher C. Burt
Weather Historian, Weather Underground
October 24, 2014
October 24, 2014
October 24, 2014

Nearby

Snow Depth

Station Depth Elevation
Merchant Valley 1 in 8750 ft
Kimberly Mine 0 in 9300 ft
Midway Valley 0 in 9800 ft
Box Creek 1 in 9800 ft
Long Flat 0 in 8000 ft

Earthquake Activity

City Distance Mag. Time & Date
Ferron, Utah 96 miles 2.5 10:53 PM MDT
2014-10-21
Minimum magnitude displayed is 2.5.

Coastal Water Temperatures

Place Temperature
No Stations Reporting

Nearby Weather Stations